createdAt,value
2019-06-10T00:00:31.251Z,74.37
2019-06-10T00:01:31.479Z,73.83
2019-06-10T00:02:30.884Z,74.57
2019-06-10T00:03:31.779Z,74.57
2019-06-10T00:04:30.859Z,73.56
2019-06-10T00:05:30.668Z,74.16
2019-06-10T00:06:31.089Z,74.07
2019-06-10T00:07:31.572Z,73.96
2019-06-10T00:08:30.839Z,75.07
2019-06-10T00:09:31.206Z,75.38
2019-06-10T00:10:31.124Z,75.38
2019-06-10T00:11:31.495Z,75.48
2019-06-10T00:12:31.418Z,75.18
2019-06-10T00:13:31.370Z,75.52
2019-06-10T00:14:31.459Z,75.42
2019-06-10T00:15:31.372Z,75.72
2019-06-10T00:16:30.871Z,75.62
2019-06-10T00:17:31.425Z,76.03
2019-06-10T00:18:38.445Z,76.03
2019-06-10T00:19:31.766Z,76.32
2019-06-10T00:20:30.574Z,76.32
2019-06-10T00:21:30.798Z,76.03
2019-06-10T00:22:31.510Z,76.03
2019-06-10T00:23:31.623Z,76.43
2019-06-10T00:24:31.523Z,76.12
2019-06-10T00:25:31.427Z,76.32
2019-06-10T00:26:30.734Z,76.03
2019-06-10T00:27:31.183Z,76.23
2019-06-10T00:28:31.125Z,76.12
2019-06-10T00:29:31.279Z,76.03
2019-06-10T00:30:31.337Z,75.62
2019-06-10T00:31:31.232Z,75.82
2019-06-10T00:32:31.887Z,76.03
2019-06-10T00:33:30.947Z,75.52
2019-06-10T00:34:31.577Z,75.52
2019-06-10T00:35:31.396Z,75.52
2019-06-10T00:36:30.906Z,75.52
2019-06-10T00:37:31.380Z,75.62
2019-06-10T00:38:31.678Z,75.82
2019-06-10T00:39:31.264Z,75.65
2019-06-10T00:40:31.639Z,75.92
2019-06-10T00:41:31.311Z,75.92
2019-06-10T00:42:36.225Z,75.21
2019-06-10T00:43:30.591Z,75.15
2019-06-10T00:44:31.312Z,75.82
2019-06-10T00:45:31.438Z,75.92
2019-06-10T00:46:31.509Z,75.76
2019-06-10T00:47:30.777Z,75.42
2019-06-10T00:48:32.108Z,75.52
2019-06-10T00:49:31.578Z,75.55
2019-06-10T00:50:30.838Z,76.16
2019-06-10T00:51:31.326Z,75.96
2019-06-10T00:52:30.878Z,75.96
2019-06-10T00:53:31.479Z,76.06
2019-06-10T00:54:31.245Z,76.16
2019-06-10T00:55:31.409Z,76.06
2019-06-10T00:56:30.817Z,76.16
2019-06-10T00:57:31.325Z,76.26
2019-06-10T00:58:31.783Z,76.16
2019-06-10T00:59:31.049Z,76.16
2019-06-10T01:00:31.626Z,76.26
2019-06-10T01:01:31.294Z,76.06
2019-06-10T01:02:29.087Z,76.36
2019-06-10T01:03:31.286Z,76.06
2019-06-10T01:04:28.999Z,76.56
2019-06-10T01:05:30.961Z,76.06
2019-06-10T01:06:31.629Z,76.26
2019-06-10T01:07:31.067Z,76.09
2019-06-10T01:08:31.431Z,76.60
2019-06-10T01:09:30.954Z,76.29
2019-06-10T01:10:28.930Z,76.77
2019-06-10T01:11:30.872Z,76.60
2019-06-10T01:12:28.944Z,76.60
2019-06-10T01:13:30.970Z,76.87
2019-06-10T01:14:28.970Z,76.56
2019-06-10T01:15:31.106Z,77.01
2019-06-10T01:16:28.907Z,77.01
2019-06-10T01:17:30.995Z,76.90
2019-06-10T01:18:35.694Z,77.01
2019-06-10T01:19:31.045Z,76.70
2019-06-10T01:20:28.905Z,77.92
2019-06-10T01:21:31.167Z,77.82
2019-06-10T01:22:28.812Z,77.92
2019-06-10T01:23:30.934Z,77.61
2019-06-10T01:24:31.276Z,77.72
2019-06-10T01:25:30.978Z,77.61
2019-06-10T01:26:32.245Z,77.11
2019-06-10T01:27:28.739Z,77.01
2019-06-10T01:28:35.714Z,77.72
2019-06-10T01:29:28.689Z,77.82
2019-06-10T01:30:31.262Z,77.92
2019-06-10T01:31:28.676Z,77.82
2019-06-10T01:32:31.015Z,77.92
2019-06-10T01:33:28.649Z,77.82
2019-06-10T01:34:30.962Z,77.31
2019-06-10T01:35:30.583Z,77.82
2019-06-10T01:36:31.200Z,77.82
2019-06-10T01:37:30.958Z,77.31
2019-06-10T01:38:28.712Z,77.92
2019-06-10T01:39:30.713Z,77.41
2019-06-10T01:40:28.624Z,77.61
2019-06-10T01:41:30.537Z,77.61
2019-06-10T01:42:30.701Z,77.41
2019-06-10T01:43:28.533Z,77.61
2019-06-10T01:44:30.788Z,77.72
2019-06-10T01:45:28.506Z,77.95
2019-06-10T01:46:28.562Z,77.65
2019-06-10T01:47:30.835Z,77.51
2019-06-10T01:48:40.455Z,77.75
2019-06-10T01:49:30.745Z,77.86
2019-06-10T01:50:28.487Z,76.74
2019-06-10T01:51:28.438Z,77.86
2019-06-10T01:52:28.531Z,77.65
2019-06-10T01:53:31.204Z,77.86
2019-06-10T01:54:28.516Z,76.84
2019-06-10T01:55:31.016Z,77.25
2019-06-10T01:56:28.432Z,76.84
2019-06-10T01:57:30.743Z,76.70
2019-06-10T01:58:28.442Z,76.54
2019-06-10T01:59:30.965Z,77.14
2019-06-10T02:00:28.453Z,77.75
2019-06-10T02:01:30.525Z,76.94
2019-06-10T02:02:28.396Z,76.70
2019-06-10T02:03:31.167Z,76.74
2019-06-10T02:04:28.381Z,76.74
2019-06-10T02:05:31.069Z,76.70
2019-06-10T02:06:28.290Z,76.70
2019-06-10T02:07:28.286Z,76.74
2019-06-10T02:08:28.300Z,76.74
2019-06-10T02:09:30.855Z,76.94
2019-06-10T02:10:31.065Z,77.04
2019-06-10T02:11:28.220Z,76.94
2019-06-10T02:12:31.752Z,77.04
2019-06-10T02:13:28.194Z,76.94
2019-06-10T02:14:35.734Z,76.74
2019-06-10T02:15:28.174Z,77.86
2019-06-10T02:16:29.177Z,77.86
2019-06-10T02:17:28.165Z,77.99
2019-06-10T02:18:28.173Z,76.98
2019-06-10T02:19:28.127Z,77.95
2019-06-10T02:20:28.185Z,77.86
2019-06-10T02:21:28.120Z,77.95
2019-06-10T02:22:28.118Z,77.79
2019-06-10T02:23:28.087Z,77.69
2019-06-10T02:24:28.109Z,77.89
2019-06-10T02:25:30.207Z,77.99
2019-06-10T02:26:28.139Z,77.79
2019-06-10T02:27:28.050Z,77.65
2019-06-10T02:28:28.130Z,77.18
2019-06-10T02:29:28.017Z,77.59
2019-06-10T02:30:40.036Z,77.79
2019-06-10T02:31:36.569Z,77.79
2019-06-10T02:32:36.870Z,77.48
2019-06-10T02:33:32.381Z,77.59
2019-06-10T02:34:28.998Z,77.48
2019-06-10T02:35:40.042Z,76.98
2019-06-10T02:36:35.434Z,77.42
2019-06-10T02:37:32.680Z,77.38
2019-06-10T02:38:37.950Z,77.38
2019-06-10T02:39:35.096Z,77.89
2019-06-10T02:40:32.019Z,78.30
2019-06-10T02:41:31.933Z,77.72
2019-06-10T02:42:30.369Z,77.38
2019-06-10T02:43:32.100Z,77.38
2019-06-10T02:44:33.280Z,77.38
2019-06-10T02:45:33.705Z,77.79
2019-06-10T02:46:31.334Z,77.48
2019-06-10T02:47:36.214Z,77.28
2019-06-10T02:48:30.561Z,77.79
2019-06-10T02:49:46.997Z,77.28
2019-06-10T02:50:32.236Z,77.69
2019-06-10T02:51:31.448Z,77.79
2019-06-10T02:52:32.687Z,77.28
2019-06-10T02:53:32.174Z,76.98
2019-06-10T02:54:31.806Z,77.59
2019-06-10T02:55:30.819Z,76.87
2019-06-10T02:56:34.973Z,77.28
2019-06-10T02:57:35.361Z,77.28
2019-06-10T02:58:34.171Z,77.69
2019-06-10T02:59:31.657Z,77.18
2019-06-10T03:00:42.638Z,77.08
2019-06-10T03:01:34.249Z,77.59
2019-06-10T03:02:32.166Z,77.59
2019-06-10T03:03:39.354Z,77.79
2019-06-10T03:04:32.585Z,77.79
2019-06-10T03:05:39.084Z,76.87
2019-06-10T03:06:34.671Z,76.98
2019-06-10T03:07:31.527Z,76.78
2019-06-10T03:08:31.658Z,77.08
2019-06-10T03:09:31.903Z,76.87
2019-06-10T03:10:32.836Z,76.33
2019-06-10T03:11:33.519Z,76.78
2019-06-10T03:12:28.556Z,76.78
2019-06-10T03:13:28.117Z,76.43
2019-06-10T03:14:28.182Z,76.78
2019-06-10T03:15:28.282Z,76.78
2019-06-10T03:16:28.128Z,77.08
2019-06-10T03:17:28.257Z,77.99
2019-06-10T03:18:28.155Z,77.38
2019-06-10T03:19:41.847Z,77.99
2019-06-10T03:20:28.463Z,77.48
2019-06-10T03:21:28.516Z,76.47
2019-06-10T03:22:28.450Z,76.78
2019-06-10T03:23:27.943Z,76.43
2019-06-10T03:24:27.577Z,76.87
2019-06-10T03:25:27.760Z,76.78
2019-06-10T03:26:27.707Z,76.87
2019-06-10T03:27:27.943Z,76.67
2019-06-10T03:28:27.817Z,76.37
2019-06-10T03:29:28.257Z,76.67
2019-06-10T03:30:41.165Z,76.78
2019-06-10T03:31:40.165Z,76.57
2019-06-10T03:32:35.151Z,76.87
2019-06-10T03:33:39.315Z,76.27
2019-06-10T03:34:36.195Z,76.33
2019-06-10T03:35:28.555Z,76.17
2019-06-10T03:36:27.418Z,76.37
2019-06-10T03:37:27.681Z,76.98
2019-06-10T03:38:32.566Z,76.37
2019-06-10T03:39:28.546Z,76.54
2019-06-10T03:40:29.347Z,76.13
2019-06-10T03:41:28.023Z,76.13
2019-06-10T03:42:36.232Z,75.82
2019-06-10T03:43:27.912Z,75.82
2019-06-10T03:44:28.422Z,76.13
2019-06-10T03:45:28.527Z,76.03
2019-06-10T03:46:29.179Z,76.33
2019-06-10T03:47:28.702Z,75.73
2019-06-10T03:48:28.400Z,75.62
2019-06-10T03:49:28.687Z,76.03
2019-06-10T03:50:28.357Z,76.03
2019-06-10T03:51:28.553Z,75.28
2019-06-10T03:52:28.406Z,75.99
2019-06-10T03:53:28.468Z,75.49
2019-06-10T03:54:29.105Z,76.09
2019-06-10T03:55:27.977Z,75.49
2019-06-10T03:56:28.192Z,75.08
2019-06-10T03:57:28.613Z,75.38
2019-06-10T03:58:28.907Z,75.38
2019-06-10T03:59:29.348Z,75.99
2019-06-10T04:00:27.649Z,75.59
2019-06-10T04:01:29.792Z,75.99
2019-06-10T04:02:28.389Z,75.79
2019-06-10T04:03:28.104Z,75.69
2019-06-10T04:04:28.274Z,75.89
2019-06-10T04:05:27.431Z,75.69
2019-06-10T04:06:27.710Z,75.99
2019-06-10T04:07:30.845Z,75.59
2019-06-10T04:08:28.054Z,75.69
2019-06-10T04:09:27.578Z,75.69
2019-06-10T04:10:29.163Z,75.49
2019-06-10T04:11:27.381Z,75.69
2019-06-10T04:12:27.812Z,75.69
2019-06-10T04:13:28.365Z,75.38
2019-06-10T04:14:28.451Z,75.49
2019-06-10T04:15:28.437Z,75.85
2019-06-10T04:16:28.295Z,75.85
2019-06-10T04:17:27.337Z,75.45
2019-06-10T04:18:29.089Z,75.96
2019-06-10T04:19:27.431Z,75.65
2019-06-10T04:20:28.347Z,75.38
2019-06-10T04:21:27.275Z,75.85
2019-06-10T04:22:28.315Z,75.76
2019-06-10T04:23:28.128Z,75.96
2019-06-10T04:24:28.279Z,75.65
2019-06-10T04:25:29.379Z,75.69
2019-06-10T04:26:28.498Z,75.99
2019-06-10T04:27:27.172Z,75.89
2019-06-10T04:28:27.602Z,75.65
2019-06-10T04:29:27.695Z,75.65
2019-06-10T04:30:28.138Z,75.76
2019-06-10T04:31:27.977Z,75.76
2019-06-10T04:32:27.769Z,75.65
2019-06-10T04:33:27.655Z,75.99
2019-06-10T04:34:28.979Z,75.85
2019-06-10T04:35:27.974Z,75.69
2019-06-10T04:36:28.159Z,75.96
2019-06-10T04:37:28.114Z,75.65
2019-06-10T04:38:27.600Z,75.65
2019-06-10T04:39:28.031Z,75.99
2019-06-10T04:40:27.794Z,76.09
2019-06-10T04:41:28.041Z,75.55
2019-06-10T04:42:27.331Z,75.85
2019-06-10T04:43:27.737Z,75.85
2019-06-10T04:44:27.787Z,75.85
2019-06-10T04:45:27.707Z,75.65
2019-06-10T04:46:28.021Z,75.65
2019-06-10T04:47:28.032Z,75.96
2019-06-10T04:48:27.714Z,74.95
2019-06-10T04:49:27.102Z,75.35
2019-06-10T04:50:35.103Z,75.45
2019-06-10T04:51:28.484Z,75.25
2019-06-10T04:52:28.030Z,74.95
2019-06-10T04:53:27.951Z,75.35
2019-06-10T04:54:28.072Z,75.45
2019-06-10T04:55:27.701Z,74.95
2019-06-10T04:56:27.815Z,74.60
2019-06-10T04:57:26.920Z,75.01
2019-06-10T04:58:27.570Z,75.31
2019-06-10T04:59:28.730Z,75.31
2019-06-10T05:00:27.636Z,75.25
2019-06-10T05:01:27.433Z,75.21
2019-06-10T05:02:27.232Z,75.01
2019-06-10T05:03:27.803Z,74.20
2019-06-10T05:04:28.121Z,74.30
2019-06-10T05:05:27.280Z,74.00
2019-06-10T05:06:27.292Z,73.80
2019-06-10T05:07:27.959Z,73.39
2019-06-10T05:08:28.488Z,74.16
2019-06-10T05:09:27.879Z,73.90
2019-06-10T05:10:33.414Z,73.59
2019-06-10T05:11:27.378Z,74.00
2019-06-10T05:12:29.554Z,73.56
2019-06-10T05:13:27.033Z,74.07
2019-06-10T05:14:28.528Z,74.07
2019-06-10T05:15:28.385Z,74.47
2019-06-10T05:16:30.068Z,74.27
2019-06-10T05:17:27.484Z,75.48
2019-06-10T05:18:27.645Z,74.07
2019-06-10T05:19:27.507Z,73.66
2019-06-10T05:20:44.183Z,73.52
2019-06-10T05:21:29.371Z,73.63
2019-06-10T05:22:27.243Z,73.72
2019-06-10T05:23:26.397Z,73.32
2019-06-10T05:24:29.318Z,73.22
2019-06-10T05:25:27.224Z,73.52
2019-06-10T05:26:27.694Z,73.22
2019-06-10T05:27:27.037Z,74.23
2019-06-10T05:28:27.467Z,73.32
2019-06-10T05:29:27.785Z,74.13
2019-06-10T05:30:27.796Z,73.22
2019-06-10T05:31:28.547Z,73.83
2019-06-10T05:32:27.505Z,73.52
2019-06-10T05:33:27.111Z,73.63
2019-06-10T05:34:27.186Z,73.93
2019-06-10T05:35:26.933Z,73.22
2019-06-10T05:36:28.643Z,73.63
2019-06-10T05:37:26.711Z,74.03
2019-06-10T05:38:27.551Z,73.52
2019-06-10T05:39:28.533Z,73.52
2019-06-10T05:40:26.543Z,73.83
2019-06-10T05:41:27.855Z,73.28
2019-06-10T05:42:26.563Z,73.79
2019-06-10T05:43:26.388Z,73.08
2019-06-10T05:44:27.254Z,72.78
2019-06-10T05:45:27.522Z,73.39
2019-06-10T05:46:27.301Z,73.08
2019-06-10T05:47:27.930Z,73.15
2019-06-10T05:48:26.717Z,73.59
2019-06-10T05:49:26.266Z,72.55
2019-06-10T05:50:26.798Z,74.10
2019-06-10T05:51:26.416Z,72.95
2019-06-10T05:52:26.452Z,72.95
2019-06-10T05:53:26.515Z,72.85
2019-06-10T05:54:29.281Z,72.44
2019-06-10T05:55:27.004Z,72.51
2019-06-10T05:56:43.319Z,72.04
2019-06-10T05:57:25.814Z,72.51
2019-06-10T05:58:27.842Z,72.81
2019-06-10T05:59:25.887Z,72.64
2019-06-10T06:00:26.088Z,72.11
2019-06-10T06:01:25.716Z,72.91
2019-06-10T06:02:25.817Z,72.91
2019-06-10T06:03:25.785Z,72.21
2019-06-10T06:04:26.417Z,72.17
2019-06-10T06:05:25.983Z,72.31
2019-06-10T06:06:25.664Z,72.31
2019-06-10T06:07:25.600Z,72.34
2019-06-10T06:08:25.659Z,72.24
2019-06-10T06:09:25.569Z,72.44
2019-06-10T06:10:25.596Z,72.64
2019-06-10T06:11:25.548Z,72.71
2019-06-10T06:12:25.585Z,73.75
2019-06-10T06:13:25.540Z,73.05
2019-06-10T06:14:25.590Z,73.15
2019-06-10T06:15:25.512Z,73.05
2019-06-10T06:16:25.685Z,73.35
2019-06-10T06:17:25.864Z,73.25
2019-06-10T06:18:25.846Z,73.46
2019-06-10T06:19:26.089Z,73.05
2019-06-10T06:20:25.588Z,72.95
2019-06-10T06:21:31.457Z,74.16
2019-06-10T06:22:27.412Z,74.06
2019-06-10T06:23:26.896Z,74.26
2019-06-10T06:24:25.584Z,74.10
2019-06-10T06:25:27.407Z,73.90
2019-06-10T06:26:26.334Z,74.26
2019-06-10T06:27:26.658Z,73.99
2019-06-10T06:28:25.796Z,74.80
2019-06-10T06:29:25.391Z,75.31
2019-06-10T06:30:26.074Z,74.19
2019-06-10T06:31:26.146Z,74.50
2019-06-10T06:32:26.264Z,75.21
2019-06-10T06:33:25.311Z,74.10
2019-06-10T06:34:26.864Z,74.70
2019-06-10T06:35:28.484Z,75.71
2019-06-10T06:36:26.588Z,75.21
2019-06-10T06:37:26.860Z,75.41
2019-06-10T06:38:25.239Z,75.61
2019-06-10T06:39:27.024Z,75.71
2019-06-10T06:40:25.233Z,75.71
2019-06-10T06:41:34.117Z,75.61
2019-06-10T06:42:25.191Z,75.61
2019-06-10T06:43:28.944Z,75.10
2019-06-10T06:44:25.169Z,75.41
2019-06-10T06:45:25.216Z,75.10
2019-06-10T06:46:25.158Z,75.61
2019-06-10T06:47:25.207Z,75.51
2019-06-10T06:48:25.129Z,75.71
2019-06-10T06:49:25.220Z,75.92
2019-06-10T06:50:25.714Z,75.71
2019-06-10T06:51:38.927Z,75.81
2019-06-10T06:52:48.254Z,75.71
2019-06-10T06:53:34.361Z,75.81
2019-06-10T06:54:26.177Z,75.41
2019-06-10T06:55:25.060Z,75.61
2019-06-10T06:56:25.061Z,75.41
2019-06-10T06:57:25.027Z,75.51
2019-06-10T06:58:25.072Z,75.41
2019-06-10T06:59:25.003Z,75.27
2019-06-10T07:00:43.010Z,75.88
2019-06-10T07:01:26.109Z,75.78
2019-06-10T07:02:24.995Z,75.78
2019-06-10T07:03:24.959Z,75.68
2019-06-10T07:04:25.010Z,75.37
2019-06-10T07:05:24.949Z,75.48
2019-06-10T07:06:25.024Z,75.37
2019-06-10T07:07:24.912Z,75.57
2019-06-10T07:08:24.941Z,75.68
2019-06-10T07:09:24.901Z,75.78
2019-06-10T07:10:24.982Z,75.37
2019-06-10T07:11:24.871Z,75.57
2019-06-10T07:12:24.966Z,75.57
2019-06-10T07:13:24.848Z,75.37
2019-06-10T07:14:24.885Z,75.57
2019-06-10T07:15:24.839Z,75.48
2019-06-10T07:16:24.893Z,75.37
2019-06-10T07:17:24.802Z,75.37
2019-06-10T07:18:24.906Z,75.37
2019-06-10T07:19:24.781Z,75.68
2019-06-10T07:20:26.893Z,75.78
2019-06-10T07:21:24.759Z,75.78
2019-06-10T07:22:47.870Z,75.78
2019-06-10T07:23:24.738Z,75.54
2019-06-10T07:24:35.816Z,75.44
2019-06-10T07:25:24.732Z,75.54
2019-06-10T07:26:24.782Z,76.15
2019-06-10T07:27:24.695Z,74.93
2019-06-10T07:28:26.713Z,74.93
2019-06-10T07:29:24.691Z,75.74
2019-06-10T07:30:25.709Z,75.81
2019-06-10T07:31:27.907Z,74.80
2019-06-10T07:32:24.696Z,75.00
2019-06-10T07:33:24.627Z,75.44
2019-06-10T07:34:24.748Z,75.40
2019-06-10T07:35:24.613Z,75.64
2019-06-10T07:36:24.646Z,75.13
2019-06-10T07:37:24.587Z,75.54
2019-06-10T07:38:26.262Z,75.74
2019-06-10T07:39:24.579Z,75.40
2019-06-10T07:40:24.650Z,75.51
2019-06-10T07:41:24.577Z,75.40
2019-06-10T07:42:24.560Z,75.60
2019-06-10T07:43:24.529Z,75.71
2019-06-10T07:44:24.596Z,75.47
2019-06-10T07:45:24.495Z,75.07
2019-06-10T07:46:24.614Z,74.05
2019-06-10T07:47:24.475Z,75.16
2019-06-10T07:48:24.495Z,74.36
2019-06-10T07:49:24.454Z,75.34
2019-06-10T07:50:24.508Z,73.92
2019-06-10T07:51:24.448Z,73.42
2019-06-10T07:52:24.530Z,74.12
2019-06-10T07:53:24.408Z,73.92
2019-06-10T07:54:24.438Z,74.32
2019-06-10T07:55:24.385Z,75.23
2019-06-10T07:56:24.489Z,74.93
2019-06-10T07:57:24.372Z,73.82
2019-06-10T07:58:24.460Z,73.82
2019-06-10T07:59:24.348Z,73.58
2019-06-10T08:00:24.369Z,73.82
2019-06-10T08:01:24.335Z,72.81
2019-06-10T08:02:24.389Z,73.72
2019-06-10T08:03:24.301Z,73.92
2019-06-10T08:04:24.400Z,73.88
2019-06-10T08:05:24.274Z,73.18
2019-06-10T08:06:25.375Z,73.48
2019-06-10T08:07:24.265Z,74.32
2019-06-10T08:08:25.361Z,73.99
2019-06-10T08:09:24.232Z,72.88
2019-06-10T08:10:24.241Z,73.08
2019-06-10T08:11:24.230Z,73.28
2019-06-10T08:12:24.247Z,73.14
2019-06-10T08:13:24.186Z,73.14
2019-06-10T08:14:26.207Z,72.91
2019-06-10T08:15:24.174Z,72.61
2019-06-10T08:16:24.214Z,72.97
2019-06-10T08:17:24.142Z,71.56
2019-06-10T08:18:24.187Z,72.03
2019-06-10T08:19:34.465Z,70.50
2019-06-10T08:20:25.108Z,69.79
2019-06-10T08:21:24.141Z,68.75
2019-06-10T08:22:35.159Z,68.65
2019-06-10T08:23:25.066Z,69.38
2019-06-10T08:24:24.129Z,70.23
2019-06-10T08:25:24.047Z,69.89
2019-06-10T08:26:24.071Z,68.95
2019-06-10T08:27:24.029Z,69.12
2019-06-10T08:28:24.058Z,68.18
2019-06-10T08:29:24.015Z,68.49
2019-06-10T08:30:27.548Z,68.52
2019-06-10T08:31:23.994Z,68.49
2019-06-10T08:32:24.592Z,67.11
2019-06-10T08:33:23.966Z,68.55
2019-06-10T08:34:24.013Z,68.12
2019-06-10T08:35:38.322Z,67.08
2019-06-10T08:36:24.945Z,66.05
2019-06-10T08:37:24.012Z,66.01
2019-06-10T08:38:23.907Z,66.45
2019-06-10T08:39:23.923Z,64.81
2019-06-10T08:40:23.890Z,63.89
2019-06-10T08:41:23.968Z,63.98
2019-06-10T08:42:23.859Z,63.81
2019-06-10T08:43:23.961Z,64.22
2019-06-10T08:44:23.836Z,63.68
2019-06-10T08:45:23.864Z,63.08
2019-06-10T08:46:23.877Z,62.92
2019-06-10T08:47:23.876Z,61.59
2019-06-10T08:48:23.794Z,59.97
2019-06-10T08:49:24.094Z,60.66
2019-06-10T08:50:24.847Z,60.88
2019-06-10T08:51:33.771Z,59.05
2019-06-10T08:52:23.967Z,57.95
2019-06-10T08:53:25.760Z,59.68
2019-06-10T08:54:23.742Z,59.70
2019-06-10T08:55:24.757Z,59.61
2019-06-10T08:56:24.092Z,60.28
2019-06-10T08:57:24.040Z,60.05
2019-06-10T08:58:23.685Z,59.45
2019-06-10T08:59:23.785Z,59.15
2019-06-10T09:00:25.655Z,59.05
2019-06-10T09:01:23.691Z,59.35
2019-06-10T09:02:23.641Z,58.95
2019-06-10T09:03:23.681Z,58.75
2019-06-10T09:04:23.615Z,57.88
2019-06-10T09:05:23.758Z,58.55
2019-06-10T09:06:23.609Z,58.68
2019-06-10T09:07:23.966Z,59.25
2019-06-10T09:08:23.587Z,58.62
2019-06-10T09:09:23.630Z,57.57
2019-06-10T09:10:23.548Z,59.34
2019-06-10T09:11:23.982Z,55.47
2019-06-10T09:12:32.425Z,53.91
2019-06-10T09:13:24.511Z,52.96
2019-06-10T09:14:23.647Z,53.70
2019-06-10T09:15:23.723Z,50.78
2019-06-10T09:16:23.561Z,49.91
2019-06-10T09:17:23.571Z,50.36
2019-06-10T09:18:23.582Z,49.40
2019-06-10T09:19:23.458Z,51.52
2019-06-10T09:20:23.490Z,51.57
2019-06-10T09:21:23.858Z,50.85
2019-06-10T09:22:23.790Z,52.56
2019-06-10T09:23:25.656Z,54.10
2019-06-10T09:24:23.415Z,54.50
2019-06-10T09:25:23.383Z,52.76
2019-06-10T09:26:23.431Z,51.77
2019-06-10T09:27:26.702Z,52.04
2019-06-10T09:28:23.647Z,52.44
2019-06-10T09:29:23.344Z,50.53
2019-06-10T09:30:23.365Z,51.47
2019-06-10T09:31:24.080Z,51.72
2019-06-10T09:32:23.561Z,51.00
2019-06-10T09:33:23.314Z,49.69
2019-06-10T09:34:23.913Z,50.73
2019-06-10T09:35:24.193Z,53.85
2019-06-10T09:36:23.686Z,52.76
2019-06-10T09:37:23.420Z,52.59
2019-06-10T09:38:23.249Z,49.99
2019-06-10T09:39:23.235Z,51.32
2019-06-10T09:40:23.324Z,52.47
2019-06-10T09:41:36.065Z,52.84
2019-06-10T09:42:24.215Z,51.89
2019-06-10T09:43:23.307Z,53.16
2019-06-10T09:44:23.179Z,54.53
2019-06-10T09:45:23.251Z,54.17
2019-06-10T09:46:23.370Z,52.96
2019-06-10T09:47:23.193Z,54.17
2019-06-10T09:48:23.224Z,53.08
2019-06-10T09:49:23.190Z,52.49
2019-06-10T09:50:23.114Z,50.73
2019-06-10T09:51:23.196Z,50.78
2019-06-10T09:52:24.052Z,50.34
2019-06-10T09:53:33.467Z,52.66
2019-06-10T09:54:24.073Z,51.42
2019-06-10T09:55:23.337Z,50.78
2019-06-10T09:56:23.575Z,50.60
2019-06-10T09:57:23.944Z,51.60
2019-06-10T09:58:23.726Z,51.12
2019-06-10T09:59:23.622Z,51.62
2019-06-10T10:00:23.425Z,52.73
2019-06-10T10:01:24.521Z,52.37
2019-06-10T10:02:22.997Z,54.39
2019-06-10T10:03:23.910Z,50.85
2019-06-10T10:04:23.723Z,52.54
2019-06-10T10:05:23.408Z,52.37
2019-06-10T10:06:23.705Z,53.16
2019-06-10T10:07:23.017Z,52.84
2019-06-10T10:08:23.799Z,52.22
2019-06-10T10:09:23.280Z,51.82
2019-06-10T10:10:24.001Z,51.40
2019-06-10T10:11:23.754Z,51.72
2019-06-10T10:12:22.890Z,51.77
2019-06-10T10:13:22.934Z,50.56
2019-06-10T10:14:23.146Z,50.36
2019-06-10T10:15:30.651Z,52.71
2019-06-10T10:16:23.831Z,52.39
2019-06-10T10:17:23.244Z,50.95
2019-06-10T10:18:23.565Z,50.06
2019-06-10T10:19:24.939Z,50.46
2019-06-10T10:20:22.962Z,50.90
2019-06-10T10:21:31.803Z,51.77
2019-06-10T10:22:22.991Z,52.14
2019-06-10T10:23:22.910Z,50.83
2019-06-10T10:24:23.065Z,50.66
2019-06-10T10:25:23.841Z,50.56
2019-06-10T10:26:22.729Z,49.77
2019-06-10T10:27:23.366Z,48.09
2019-06-10T10:28:25.519Z,49.02
2019-06-10T10:29:22.892Z,48.90
2019-06-10T10:30:24.474Z,50.68
2019-06-10T10:31:23.913Z,48.83
2019-06-10T10:32:23.354Z,50.76
2019-06-10T10:33:25.379Z,48.11
2019-06-10T10:34:23.834Z,51.10
2019-06-10T10:35:24.210Z,52.56
2019-06-10T10:36:22.784Z,54.52
2019-06-10T10:37:22.991Z,54.47
2019-06-10T10:38:23.070Z,52.51
2019-06-10T10:39:24.584Z,53.01
2019-06-10T10:40:23.372Z,53.75
2019-06-10T10:41:23.989Z,52.41
2019-06-10T10:42:23.635Z,52.76
2019-06-10T10:43:32.009Z,49.82
2019-06-10T10:44:23.529Z,47.41
2019-06-10T10:45:22.790Z,47.45
2019-06-10T10:46:23.136Z,48.86
2019-06-10T10:47:25.161Z,49.20
2019-06-10T10:48:22.708Z,49.66
2019-06-10T10:49:22.566Z,49.52
2019-06-10T10:50:22.594Z,49.67
2019-06-10T10:51:23.156Z,49.60
2019-06-10T10:52:22.504Z,50.56
2019-06-10T10:53:23.811Z,51.35
2019-06-10T10:54:33.021Z,50.93
2019-06-10T10:55:23.424Z,48.98
2019-06-10T10:56:22.519Z,49.13
2019-06-10T10:57:23.221Z,48.75
2019-06-10T10:58:23.034Z,47.06
2019-06-10T10:59:22.375Z,48.53
2019-06-10T11:00:22.684Z,50.31
2019-06-10T11:01:23.656Z,49.49
2019-06-10T11:02:22.805Z,49.08
2019-06-10T11:03:22.833Z,49.20
2019-06-10T11:04:44.313Z,51.64
2019-06-10T11:05:23.160Z,47.94
2019-06-10T11:06:32.291Z,46.44
2019-06-10T11:07:22.436Z,46.93
2019-06-10T11:08:22.754Z,47.37
2019-06-10T11:09:22.437Z,47.84
2019-06-10T11:10:23.187Z,49.62
2019-06-10T11:11:23.534Z,48.98
2019-06-10T11:12:22.993Z,48.11
2019-06-10T11:13:22.392Z,47.62
2019-06-10T11:14:23.001Z,48.48
2019-06-10T11:15:23.147Z,50.01
2019-06-10T11:16:22.535Z,50.18
2019-06-10T11:17:22.704Z,49.77
2019-06-10T11:18:22.762Z,49.77
2019-06-10T11:19:22.288Z,49.57
2019-06-10T11:20:22.542Z,49.25
2019-06-10T11:21:22.818Z,47.47
2019-06-10T11:22:23.244Z,46.48
2019-06-10T11:23:22.874Z,47.32
2019-06-10T11:24:35.519Z,48.28
2019-06-10T11:25:23.270Z,48.41
2019-06-10T11:26:22.843Z,47.01
2019-06-10T11:27:22.746Z,47.30
2019-06-10T11:28:22.775Z,49.74
2019-06-10T11:29:22.059Z,47.45
2019-06-10T11:30:22.067Z,45.65
2019-06-10T11:31:22.676Z,46.81
2019-06-10T11:32:22.143Z,46.56
2019-06-10T11:33:22.739Z,47.00
2019-06-10T11:34:22.092Z,46.22
2019-06-10T11:35:22.006Z,47.00
2019-06-10T11:36:22.798Z,46.22
2019-06-10T11:37:23.083Z,47.66
2019-06-10T11:38:23.478Z,48.28
2019-06-10T11:39:22.533Z,46.31
2019-06-10T11:40:22.950Z,48.74
2019-06-10T11:41:23.697Z,47.09
2019-06-10T11:42:23.366Z,47.18
2019-06-10T11:43:22.654Z,46.22
2019-06-10T11:44:22.522Z,46.37
2019-06-10T11:45:22.295Z,45.83
2019-06-10T11:46:21.929Z,46.52
2019-06-10T11:47:22.928Z,46.52
2019-06-10T11:48:23.805Z,45.78
2019-06-10T11:49:23.737Z,47.03
2019-06-10T11:50:23.211Z,47.20
2019-06-10T11:51:23.465Z,47.52
2019-06-10T11:52:23.922Z,46.70
2019-06-10T11:53:22.891Z,46.42
2019-06-10T11:54:23.435Z,46.86
2019-06-10T11:55:23.826Z,45.34
2019-06-10T11:56:22.342Z,45.16
2019-06-10T11:57:22.950Z,45.73
2019-06-10T11:58:22.441Z,45.04
2019-06-10T11:59:21.760Z,44.84
2019-06-10T12:00:23.181Z,43.62
2019-06-10T12:01:22.872Z,45.97
2019-06-10T12:02:22.842Z,45.14
2019-06-10T12:03:22.981Z,44.47
2019-06-10T12:04:23.905Z,45.93
2019-06-10T12:05:23.528Z,44.01
2019-06-10T12:06:22.885Z,43.28
2019-06-10T12:07:22.376Z,42.28
2019-06-10T12:08:23.706Z,41.41
2019-06-10T12:09:23.002Z,38.31
2019-06-10T12:10:23.314Z,37.88
2019-06-10T12:11:23.050Z,40.39
2019-06-10T12:12:22.122Z,41.69
2019-06-10T12:13:22.646Z,42.93
2019-06-10T12:14:26.336Z,43.84
2019-06-10T12:15:22.848Z,43.32
2019-06-10T12:17:14.833Z,43.08
2019-06-10T12:17:40.491Z,42.47
2019-06-10T12:18:23.065Z,41.45
2019-06-10T12:19:23.543Z,40.45
2019-06-10T12:20:22.835Z,40.06
2019-06-10T12:21:23.548Z,41.14
2019-06-10T12:22:22.683Z,41.35
2019-06-10T12:23:22.160Z,42.63
2019-06-10T12:24:23.095Z,45.67
2019-06-10T12:25:32.562Z,46.39
2019-06-10T12:26:23.451Z,46.11
2019-06-10T12:27:22.120Z,47.89
2019-06-10T12:28:21.450Z,47.47
2019-06-10T12:29:22.525Z,49.19
2019-06-10T12:30:22.388Z,47.96
2019-06-10T12:31:23.128Z,47.79
2019-06-10T12:32:22.560Z,48.51
2019-06-10T12:33:25.224Z,47.05
2019-06-10T12:34:22.673Z,47.59
2019-06-10T12:35:23.009Z,47.07
2019-06-10T12:36:23.574Z,46.73
2019-06-10T12:37:23.957Z,47.77
2019-06-10T12:38:22.747Z,47.96
2019-06-10T12:39:35.844Z,47.49
2019-06-10T12:40:21.310Z,48.90
2019-06-10T12:41:23.628Z,50.60
2019-06-10T12:42:22.410Z,49.15
2019-06-10T12:43:23.199Z,49.12
2019-06-10T12:44:22.783Z,48.92
2019-06-10T12:45:23.348Z,51.54
2019-06-10T12:46:23.221Z,48.55
2019-06-10T12:47:22.863Z,47.52
2019-06-10T12:48:22.186Z,45.95
2019-06-10T12:49:21.279Z,43.71
2019-06-10T12:50:21.208Z,43.56
2019-06-10T12:51:22.715Z,43.62
2019-06-10T12:52:22.935Z,41.47